Time;durP1;ratioP1;P1;durP2;ratioP2;P2;SDS_P1;SDS_P2;PMS_P1;PMS_P2;Temp;Humidity;BMP_temperature;BMP_pressure;BME280_temperature;BME280_humidity;BME280_pressure;Samples;Min_cycle;Max_cycle;Signal;HPM_P1;HPM_P2
2021/12/10 00:01:52;;;;;;;;;;;20.30;40.40;;;;;;5080305;28;20268;-62
2021/12/10 00:04:18;;;;;;;;;;;20.30;40.40;;;;;;5063171;28;19919;-62
2021/12/10 00:06:48;;;;;;;;;;;20.20;40.30;;;;;;5076907;28;19958;-62
2021/12/10 00:09:18;;;;;;;;;;;20.20;41.00;;;;;;5074903;28;20379;-62
2021/12/10 00:11:46;;;;;;;;;;;20.20;40.50;;;;;;5078748;28;20388;-62
2021/12/10 00:14:11;;;;;;;;;;;20.10;40.40;;;;;;5077456;28;19947;-62
2021/12/10 00:16:37;;;;;;;;;;;20.20;40.40;;;;;;5079198;28;19944;-61
2021/12/10 00:19:19;;;;;;;;;;;20.10;40.30;;;;;;5076446;28;19912;-61
2021/12/10 00:21:46;;;;;;;;;;;20.10;40.30;;;;;;5075562;28;19991;-61
2021/12/10 00:24:11;;;;;;;;;;;20.10;40.30;;;;;;5075651;28;19912;-61
2021/12/10 00:26:37;;;;;;;;;;;20.10;40.20;;;;;;5066236;28;20006;-61
2021/12/10 00:29:04;;;;;;;;;;;20.10;40.20;;;;;;5076852;28;19913;-62
2021/12/10 00:31:43;;;;;;;;;;;20.10;40.30;;;;;;5076468;28;19939;-62
2021/12/10 00:34:17;;;;;;;;;;;20.10;40.30;;;;;;5081240;28;19912;-62
2021/12/10 00:36:43;;;;;;;;;;;20.00;40.40;;;;;;5077614;28;19962;-61
2021/12/10 00:39:10;;;;;;;;;;;20.00;40.30;;;;;;5081772;28;19916;-61
2021/12/10 00:41:36;;;;;;;;;;;20.00;40.30;;;;;;5073646;28;19967;-62
2021/12/10 00:44:02;;;;;;;;;;;20.00;40.40;;;;;;5077263;28;20036;-62
2021/12/10 00:46:27;;;;;;;;;;;20.00;40.50;;;;;;5073493;28;19954;-62
2021/12/10 00:48:52;;;;;;;;;;;20.00;40.50;;;;;;5080057;28;19973;-61
2021/12/10 00:51:18;;;;;;;;;;;19.90;40.40;;;;;;5072734;28;19922;-61
2021/12/10 00:53:43;;;;;;;;;;;20.00;40.40;;;;;;5076672;28;19948;-61
2021/12/10 00:56:09;;;;;;;;;;;20.00;40.40;;;;;;5073084;28;19943;-62
2021/12/10 00:58:35;;;;;;;;;;;20.00;40.30;;;;;;5073044;28;19927;-62
2021/12/10 01:01:04;;;;;;;;;;;20.00;40.30;;;;;;5079650;28;19924;-62
2021/12/10 01:03:31;;;;;;;;;;;20.00;40.30;;;;;;5072911;28;20114;-62
2021/12/10 01:06:00;;;;;;;;;;;20.00;40.30;;;;;;5075496;28;19919;-62
2021/12/10 01:08:26;;;;;;;;;;;19.90;40.30;;;;;;5077246;28;19923;-61
2021/12/10 01:10:53;;;;;;;;;;;20.00;40.20;;;;;;5065461;28;19913;-61
2021/12/10 01:13:26;;;;;;;;;;;20.00;40.30;;;;;;5076331;28;19920;-62
2021/12/10 01:16:13;;;;;;;;;;;20.00;40.10;;;;;;5082291;28;19916;-61
2021/12/10 01:24:17;;;;;;;;;;;20.00;40.30;;;;;;5080742;28;19918;-61
2021/12/10 01:29:16;;;;;;;;;;;19.90;40.10;;;;;;5084879;28;19970;-61
2021/12/10 01:31:42;;;;;;;;;;;19.90;40.20;;;;;;5076697;28;19920;-61
2021/12/10 01:34:08;;;;;;;;;;;19.90;40.30;;;;;;5079408;28;19958;-62
2021/12/10 01:36:33;;;;;;;;;;;19.80;40.20;;;;;;5073884;28;20030;-61
2021/12/10 01:38:59;;;;;;;;;;;19.90;40.30;;;;;;5076442;28;19912;-62
2021/12/10 01:41:26;;;;;;;;;;;19.90;40.20;;;;;;5076304;28;20010;-62
2021/12/10 01:43:52;;;;;;;;;;;19.90;40.20;;;;;;5082317;28;20010;-61
2021/12/10 01:46:26;;;;;;;;;;;19.90;40.10;;;;;;5066207;28;19955;-61
2021/12/10 01:48:55;;;;;;;;;;;19.90;40.10;;;;;;5084672;28;20258;-62
2021/12/10 01:51:29;;;;;;;;;;;19.90;40.10;;;;;;5075887;28;20288;-62
2021/12/10 01:53:55;;;;;;;;;;;19.90;40.10;;;;;;5080295;28;19966;-62
2021/12/10 01:56:26;;;;;;;;;;;19.90;40.10;;;;;;5075970;28;19924;-61
2021/12/10 01:58:51;;;;;;;;;;;19.90;40.00;;;;;;5077119;28;20364;-61
2021/12/10 02:01:24;;;;;;;;;;;19.90;40.00;;;;;;5079296;28;20012;-62
2021/12/10 02:03:50;;;;;;;;;;;19.90;40.00;;;;;;5074820;28;19916;-62
2021/12/10 02:06:15;;;;;;;;;;;19.90;39.90;;;;;;5082294;28;20028;-62
2021/12/10 02:08:41;;;;;;;;;;;19.90;40.00;;;;;;5073276;28;19924;-62
2021/12/10 02:11:07;;;;;;;;;;;19.90;40.00;;;;;;5080838;28;20012;-62
2021/12/10 02:13:32;;;;;;;;;;;19.90;40.00;;;;;;5081060;28;19920;-62
2021/12/10 02:15:57;;;;;;;;;;;19.90;40.00;;;;;;5076274;28;20339;-62
2021/12/10 02:18:23;;;;;;;;;;;19.80;40.00;;;;;;5082383;28;19920;-62
2021/12/10 02:21:00;;;;;;;;;;;19.80;40.00;;;;;;5078518;28;19912;-62
2021/12/10 02:23:26;;;;;;;;;;;19.80;40.00;;;;;;5074918;28;20251;-61
2021/12/10 02:25:52;;;;;;;;;;;19.80;40.00;;;;;;5077910;28;19912;-61
2021/12/10 02:28:18;;;;;;;;;;;19.90;40.00;;;;;;5079321;28;19913;-62
2021/12/10 02:30:43;;;;;;;;;;;19.90;39.80;;;;;;5076427;28;19920;-61
2021/12/10 02:33:09;;;;;;;;;;;20.00;39.80;;;;;;5074482;28;19964;-62
2021/12/10 02:35:34;;;;;;;;;;;20.00;39.70;;;;;;5075840;28;19920;-62
2021/12/10 02:38:00;;;;;;;;;;;20.10;39.60;;;;;;5072797;28;19920;-62
2021/12/10 02:40:25;;;;;;;;;;;20.20;39.40;;;;;;5078355;28;19912;-62
2021/12/10 02:42:51;;;;;;;;;;;20.30;39.30;;;;;;5077618;28;20077;-62
2021/12/10 02:45:17;;;;;;;;;;;20.40;39.20;;;;;;5078043;28;19913;-62
2021/12/10 02:47:43;;;;;;;;;;;20.40;39.00;;;;;;5077212;28;19912;-61
2021/12/10 02:50:08;;;;;;;;;;;20.50;38.90;;;;;;5081670;28;19912;-62
2021/12/10 02:52:34;;;;;;;;;;;20.60;38.70;;;;;;5076384;28;19917;-62
2021/12/10 02:54:59;;;;;;;;;;;20.70;38.70;;;;;;5080450;28;20605;-61
2021/12/10 02:57:25;;;;;;;;;;;20.70;38.50;;;;;;5080095;28;19913;-61
2021/12/10 02:59:51;;;;;;;;;;;20.70;38.50;;;;;;5081907;28;19912;-62
2021/12/10 03:02:17;;;;;;;;;;;20.70;38.40;;;;;;5078513;28;19990;-62
2021/12/10 03:04:42;;;;;;;;;;;20.70;38.40;;;;;;5079396;28;19919;-62
2021/12/10 03:07:12;;;;;;;;;;;20.70;38.50;;;;;;5074275;28;19912;-63
2021/12/10 03:09:38;;;;;;;;;;;20.70;38.50;;;;;;5076652;28;19920;-62
2021/12/10 03:12:03;;;;;;;;;;;20.70;38.60;;;;;;5075579;28;19920;-62
2021/12/10 03:14:30;;;;;;;;;;;20.70;38.70;;;;;;5079350;28;20284;-62
2021/12/10 03:16:57;;;;;;;;;;;20.70;38.70;;;;;;5074586;28;19917;-61
2021/12/10 03:19:23;;;;;;;;;;;20.60;38.50;;;;;;5079214;28;19912;-62
2021/12/10 03:21:49;;;;;;;;;;;20.60;38.50;;;;;;5075122;28;19966;-62
2021/12/10 03:24:15;;;;;;;;;;;20.60;38.60;;;;;;5071967;28;19966;-62
2021/12/10 03:26:41;;;;;;;;;;;20.60;38.80;;;;;;5079789;28;20006;-62
2021/12/10 03:29:06;;;;;;;;;;;20.50;38.80;;;;;;5074942;28;19916;-62
2021/12/10 03:31:32;;;;;;;;;;;20.50;38.90;;;;;;5078414;28;19912;-62
2021/12/10 03:33:57;;;;;;;;;;;20.50;38.90;;;;;;5077713;28;19966;-61
2021/12/10 03:36:23;;;;;;;;;;;20.50;39.00;;;;;;5077073;28;20015;-61
2021/12/10 03:38:48;;;;;;;;;;;20.50;39.60;;;;;;5082007;28;19912;-62
2021/12/10 03:41:14;;;;;;;;;;;20.50;38.90;;;;;;5074939;28;19916;-61
2021/12/10 03:43:39;;;;;;;;;;;20.50;38.80;;;;;;5076587;28;19924;-61
2021/12/10 03:46:05;;;;;;;;;;;20.40;38.70;;;;;;5077275;28;19939;-62
2021/12/10 03:48:32;;;;;;;;;;;20.40;38.80;;;;;;5073907;28;19955;-62
2021/12/10 03:51:02;;;;;;;;;;;20.40;38.80;;;;;;5073275;28;19919;-62
2021/12/10 03:53:28;;;;;;;;;;;20.40;38.90;;;;;;5080657;28;19959;-62
2021/12/10 03:55:57;;;;;;;;;;;20.40;38.80;;;;;;5076161;28;19974;-62
2021/12/10 03:58:23;;;;;;;;;;;20.40;38.90;;;;;;5065463;28;20019;-62
2021/12/10 04:00:50;;;;;;;;;;;20.40;38.90;;;;;;5074491;28;20007;-63
2021/12/10 04:03:17;;;;;;;;;;;20.40;38.90;;;;;;5081650;28;19912;-62
2021/12/10 04:05:42;;;;;;;;;;;20.40;38.90;;;;;;5080299;28;19919;-63
2021/12/10 04:08:08;;;;;;;;;;;20.40;39.50;;;;;;5076769;28;19999;-62
2021/12/10 04:10:33;;;;;;;;;;;20.40;38.80;;;;;;5077573;28;19912;-62
2021/12/10 04:12:59;;;;;;;;;;;20.40;38.80;;;;;;5077636;28;19920;-61
2021/12/10 04:15:24;;;;;;;;;;;20.40;38.90;;;;;;5074208;28;19920;-61
2021/12/10 04:17:50;;;;;;;;;;;20.40;38.90;;;;;;5074462;28;19974;-62
2021/12/10 04:20:16;;;;;;;;;;;20.40;38.90;;;;;;5074075;28;19919;-62
2021/12/10 04:22:46;;;;;;;;;;;20.40;38.90;;;;;;5065070;28;20026;-61
2021/12/10 04:25:11;;;;;;;;;;;20.40;38.90;;;;;;5076023;28;19920;-62
2021/12/10 04:27:37;;;;;;;;;;;20.40;38.90;;;;;;5079078;28;20288;-61
2021/12/10 04:30:03;;;;;;;;;;;20.40;38.90;;;;;;5074443;28;19991;-61
2021/12/10 04:32:29;;;;;;;;;;;20.40;38.90;;;;;;5078942;28;19920;-62
2021/12/10 04:34:54;;;;;;;;;;;20.30;39.00;;;;;;5072418;28;19921;-62
2021/12/10 04:37:20;;;;;;;;;;;20.20;39.10;;;;;;5075609;28;19920;-61
2021/12/10 04:39:48;;;;;;;;;;;20.10;39.20;;;;;;5071358;28;19916;-62
2021/12/10 04:42:20;;;;;;;;;;;20.10;39.40;;;;;;5080906;28;19919;-62
2021/12/10 04:44:46;;;;;;;;;;;20.10;39.30;;;;;;5074773;28;19938;-62
2021/12/10 04:47:11;;;;;;;;;;;20.10;39.30;;;;;;5066339;28;19912;-61
2021/12/10 04:49:37;;;;;;;;;;;20.10;39.20;;;;;;5070281;28;19948;-62
2021/12/10 04:52:03;;;;;;;;;;;20.10;39.20;;;;;;5078152;28;19999;-61
2021/12/10 04:54:28;;;;;;;;;;;20.10;39.20;;;;;;5072738;28;19923;-62
2021/12/10 04:56:55;;;;;;;;;;;20.10;39.20;;;;;;5073917;28;19924;-61
2021/12/10 04:59:20;;;;;;;;;;;20.10;39.20;;;;;;5078112;28;19920;-62
2021/12/10 05:01:46;;;;;;;;;;;20.10;39.20;;;;;;5079160;28;20314;-62
2021/12/10 05:04:12;;;;;;;;;;;20.20;39.20;;;;;;5067247;28;20345;-62
2021/12/10 05:06:37;;;;;;;;;;;20.20;39.20;;;;;;5082867;28;19912;-62
2021/12/10 05:09:03;;;;;;;;;;;20.20;39.30;;;;;;5074647;28;19935;-62
2021/12/10 05:11:29;;;;;;;;;;;20.30;38.90;;;;;;5073393;28;19919;-62
2021/12/10 05:13:54;;;;;;;;;;;20.30;38.70;;;;;;5077285;28;19919;-62
2021/12/10 05:16:25;;;;;;;;;;;20.40;38.70;;;;;;5070587;28;20403;-62
2021/12/10 05:18:56;;;;;;;;;;;20.40;38.60;;;;;;5084562;28;19927;-62
2021/12/10 05:21:21;;;;;;;;;;;20.40;38.50;;;;;;5089838;28;19912;-62
2021/12/10 05:23:47;;;;;;;;;;;20.50;38.50;;;;;;5079739;28;19919;-62
2021/12/10 05:26:12;;;;;;;;;;;20.50;38.50;;;;;;5095009;28;19912;-62
2021/12/10 05:28:38;;;;;;;;;;;20.40;38.40;;;;;;5080441;28;19912;-62
2021/12/10 05:31:03;;;;;;;;;;;20.40;38.50;;;;;;5079628;28;20003;-61
2021/12/10 05:33:29;;;;;;;;;;;20.40;38.50;;;;;;5068101;28;20260;-62
2021/12/10 05:35:54;;;;;;;;;;;20.40;38.60;;;;;;5079098;28;19936;-62
2021/12/10 05:38:20;;;;;;;;;;;20.40;38.60;;;;;;5062213;28;19927;-62
2021/12/10 05:40:46;;;;;;;;;;;20.30;38.60;;;;;;5077802;28;19965;-62
2021/12/10 05:43:12;;;;;;;;;;;20.30;38.70;;;;;;5080184;28;20009;-62
2021/12/10 05:45:37;;;;;;;;;;;20.30;38.70;;;;;;5078387;28;19966;-62
2021/12/10 05:48:03;;;;;;;;;;;20.30;38.60;;;;;;5079082;28;19919;-62
2021/12/10 05:50:29;;;;;;;;;;;20.40;38.60;;;;;;5076072;28;19939;-62
2021/12/10 05:52:54;;;;;;;;;;;20.40;38.60;;;;;;5080714;28;19917;-62
2021/12/10 05:55:20;;;;;;;;;;;20.40;38.40;;;;;;5081714;28;19971;-61
2021/12/10 05:57:45;;;;;;;;;;;20.40;38.40;;;;;;5080411;28;19930;-62
2021/12/10 06:00:13;;;;;;;;;;;20.40;38.40;;;;;;5077836;28;20265;-62
2021/12/10 06:02:38;;;;;;;;;;;20.40;38.50;;;;;;5077521;28;20054;-62
2021/12/10 06:05:04;;;;;;;;;;;20.30;38.50;;;;;;5097540;28;19999;-62
2021/12/10 06:07:29;;;;;;;;;;;20.30;39.20;;;;;;5080922;28;19974;-62
2021/12/10 06:09:55;;;;;;;;;;;20.30;38.70;;;;;;5080489;28;20435;-62
2021/12/10 06:12:20;;;;;;;;;;;20.20;38.70;;;;;;5078809;28;19927;-62
2021/12/10 06:14:46;;;;;;;;;;;20.20;38.80;;;;;;5081681;28;20002;-62
2021/12/10 06:17:11;;;;;;;;;;;20.20;38.90;;;;;;5083923;28;19913;-61
2021/12/10 06:19:37;;;;;;;;;;;20.20;38.90;;;;;;5074904;28;20286;-62
2021/12/10 06:22:03;;;;;;;;;;;20.10;38.80;;;;;;5079479;28;20372;-62
2021/12/10 06:24:28;;;;;;;;;;;20.10;38.80;;;;;;5079337;28;20331;-62
2021/12/10 06:26:53;;;;;;;;;;;20.20;38.90;;;;;;5078955;28;20426;-62
2021/12/10 06:29:22;;;;;;;;;;;20.20;38.80;;;;;;5077560;28;20031;-62
2021/12/10 06:31:48;;;;;;;;;;;20.20;38.80;;;;;;5070603;28;19912;-61
2021/12/10 06:34:13;;;;;;;;;;;20.20;38.80;;;;;;5078759;28;20411;-61
2021/12/10 06:36:39;;;;;;;;;;;20.20;38.80;;;;;;5080775;28;19960;-61
2021/12/10 06:39:06;;;;;;;;;;;20.20;38.80;;;;;;5075079;28;19916;-62
2021/12/10 06:41:31;;;;;;;;;;;20.20;38.70;;;;;;5078786;28;19924;-62
2021/12/10 06:43:57;;;;;;;;;;;20.20;38.70;;;;;;5075436;28;20288;-61
2021/12/10 06:46:23;;;;;;;;;;;20.20;38.70;;;;;;5079052;28;19913;-61
2021/12/10 06:48:48;;;;;;;;;;;20.20;38.70;;;;;;5080777;28;19913;-61
2021/12/10 06:51:18;;;;;;;;;;;20.20;38.70;;;;;;5080782;28;19916;-61
2021/12/10 06:53:44;;;;;;;;;;;20.20;38.70;;;;;;5073827;28;20333;-62
2021/12/10 06:56:09;;;;;;;;;;;20.20;38.70;;;;;;5075709;28;19928;-62
2021/12/10 06:58:35;;;;;;;;;;;20.10;38.70;;;;;;5080944;28;19916;-62
2021/12/10 07:01:02;;;;;;;;;;;20.20;38.80;;;;;;5075482;28;19952;-62
2021/12/10 07:03:28;;;;;;;;;;;20.20;38.70;;;;;;5076635;28;20319;-62
2021/12/10 07:05:54;;;;;;;;;;;20.20;38.70;;;;;;5078741;28;19919;-62
2021/12/10 07:08:20;;;;;;;;;;;20.20;38.70;;;;;;5074044;28;20662;-62
2021/12/10 07:10:45;;;;;;;;;;;20.20;38.70;;;;;;5074320;28;19924;-62
2021/12/10 07:13:12;;;;;;;;;;;20.20;38.70;;;;;;5076697;28;20007;-62
2021/12/10 07:15:37;;;;;;;;;;;20.20;38.60;;;;;;5075288;28;19924;-62
2021/12/10 07:18:03;;;;;;;;;;;20.20;38.70;;;;;;5075393;28;20376;-62
2021/12/10 07:20:29;;;;;;;;;;;20.10;38.70;;;;;;5076807;28;19912;-62
2021/12/10 07:22:54;;;;;;;;;;;20.10;38.70;;;;;;5075815;28;19917;-61
2021/12/10 07:25:20;;;;;;;;;;;20.10;38.80;;;;;;5087635;28;19942;-61
2021/12/10 07:27:46;;;;;;;;;;;20.10;38.70;;;;;;5074273;28;19927;-62
2021/12/10 07:30:11;;;;;;;;;;;20.10;38.70;;;;;;5077694;28;20287;-62
2021/12/10 07:32:37;;;;;;;;;;;20.10;38.80;;;;;;5078377;28;19913;-62
2021/12/10 07:35:03;;;;;;;;;;;20.10;38.80;;;;;;5071862;28;19956;-61
2021/12/10 07:37:28;;;;;;;;;;;20.10;38.80;;;;;;5078580;28;19912;-62
2021/12/10 07:39:54;;;;;;;;;;;20.10;38.70;;;;;;5064924;28;20344;-62
2021/12/10 07:42:19;;;;;;;;;;;20.10;38.70;;;;;;5077420;28;19927;-62
2021/12/10 07:44:45;;;;;;;;;;;20.10;38.70;;;;;;5079076;28;20007;-62
2021/12/10 07:47:13;;;;;;;;;;;20.10;38.70;;;;;;5078620;28;20077;-62
2021/12/10 07:49:39;;;;;;;;;;;20.10;38.70;;;;;;5073775;28;19919;-63
2021/12/10 07:52:06;;;;;;;;;;;20.10;38.70;;;;;;5079347;28;20015;-62
2021/12/10 07:54:32;;;;;;;;;;;20.10;38.70;;;;;;5073786;28;20343;-62
2021/12/10 07:56:57;;;;;;;;;;;20.20;38.80;;;;;;5074549;28;19923;-62
2021/12/10 07:59:23;;;;;;;;;;;20.20;38.80;;;;;;5074870;28;19912;-62
2021/12/10 08:01:48;;;;;;;;;;;20.10;38.80;;;;;;5078793;28;19912;-62
2021/12/10 08:04:14;;;;;;;;;;;20.10;38.80;;;;;;5078432;28;19981;-62
2021/12/10 08:06:39;;;;;;;;;;;20.20;38.90;;;;;;5077401;28;19922;-62
2021/12/10 08:09:05;;;;;;;;;;;20.10;38.80;;;;;;5079522;28;19963;-62
2021/12/10 08:11:30;;;;;;;;;;;20.10;38.80;;;;;;5085990;28;19921;-62
2021/12/10 08:13:57;;;;;;;;;;;20.20;39.00;;;;;;5075589;28;19934;-62
2021/12/10 08:16:23;;;;;;;;;;;20.10;38.90;;;;;;5096257;28;19958;-62
2021/12/10 08:18:51;;;;;;;;;;;20.10;38.90;;;;;;5094457;28;20689;-62
2021/12/10 08:21:17;;;;;;;;;;;20.20;39.10;;;;;;5104057;28;19995;-62
2021/12/10 08:23:42;;;;;;;;;;;20.10;39.10;;;;;;5086309;28;20337;-63
2021/12/10 08:26:09;;;;;;;;;;;20.20;39.20;;;;;;5074318;28;19960;-62
2021/12/10 08:28:34;;;;;;;;;;;20.30;39.20;;;;;;5070811;28;19916;-62
2021/12/10 08:31:00;;;;;;;;;;;20.40;39.00;;;;;;5077681;28;20384;-62
2021/12/10 08:33:27;;;;;;;;;;;20.60;39.00;;;;;;5077463;28;19951;-63
2021/12/10 08:35:54;;;;;;;;;;;20.70;38.90;;;;;;5088008;28;19978;-63
2021/12/10 08:38:19;;;;;;;;;;;20.80;38.70;;;;;;5083752;28;19916;-63
2021/12/10 08:40:46;;;;;;;;;;;21.00;38.70;;;;;;5081343;28;19923;-62
2021/12/10 08:43:11;;;;;;;;;;;21.10;38.50;;;;;;5082204;28;19916;-62
2021/12/10 08:45:37;;;;;;;;;;;21.20;38.60;;;;;;5084271;28;20398;-63
2021/12/10 08:48:03;;;;;;;;;;;21.20;38.50;;;;;;5075360;28;20443;-63
2021/12/10 08:50:28;;;;;;;;;;;21.30;38.40;;;;;;5085073;28;19948;-63
2021/12/10 08:52:57;;;;;;;;;;;21.30;38.30;;;;;;5082292;28;19919;-62
2021/12/10 08:55:22;;;;;;;;;;;21.40;38.30;;;;;;5068889;28;19916;-63
2021/12/10 08:57:48;;;;;;;;;;;21.40;38.10;;;;;;5079652;28;19916;-63
2021/12/10 09:00:13;;;;;;;;;;;21.50;38.10;;;;;;5069565;28;19970;-63
2021/12/10 09:02:39;;;;;;;;;;;21.50;38.10;;;;;;5085775;28;19918;-63
2021/12/10 09:05:06;;;;;;;;;;;21.50;38.00;;;;;;5078885;28;20057;-63
2021/12/10 09:07:31;;;;;;;;;;;21.60;38.10;;;;;;5073412;28;19941;-63
2021/12/10 09:09:57;;;;;;;;;;;21.60;38.00;;;;;;5075467;28;19912;-63
2021/12/10 09:12:23;;;;;;;;;;;21.60;38.00;;;;;;5074099;28;19928;-62
2021/12/10 09:14:51;;;;;;;;;;;21.60;37.90;;;;;;5076924;28;19912;-63
2021/12/10 09:17:21;;;;;;;;;;;21.60;37.90;;;;;;5077940;28;19920;-63
2021/12/10 09:19:46;;;;;;;;;;;21.60;38.00;;;;;;5081404;28;19919;-63
2021/12/10 09:22:11;;;;;;;;;;;21.70;38.00;;;;;;5086968;28;19912;-63
2021/12/10 09:24:37;;;;;;;;;;;21.70;38.00;;;;;;5082132;28;19913;-63
2021/12/10 09:27:03;;;;;;;;;;;21.70;38.00;;;;;;5072485;28;19924;-63
2021/12/10 09:29:31;;;;;;;;;;;21.70;38.00;;;;;;5080946;28;20261;-63
2021/12/10 09:31:57;;;;;;;;;;;21.70;38.00;;;;;;5082867;28;20364;-63
2021/12/10 09:34:22;;;;;;;;;;;21.70;38.10;;;;;;5078487;28;19919;-63
2021/12/10 09:36:48;;;;;;;;;;;21.70;38.00;;;;;;5077334;28;19964;-63
2021/12/10 09:39:14;;;;;;;;;;;21.70;38.00;;;;;;5089362;28;19916;-63
2021/12/10 09:41:39;;;;;;;;;;;21.70;38.10;;;;;;5086245;28;19920;-62
2021/12/10 09:44:05;;;;;;;;;;;21.70;38.00;;;;;;5080454;28;19950;-62
2021/12/10 09:46:31;;;;;;;;;;;21.70;38.00;;;;;;5081447;28;19920;-63
2021/12/10 09:48:56;;;;;;;;;;;21.70;38.00;;;;;;5075650;28;19995;-64
2021/12/10 09:51:25;;;;;;;;;;;21.70;38.00;;;;;;5081413;28;19913;-63
2021/12/10 09:53:52;;;;;;;;;;;21.80;38.00;;;;;;5090152;28;19988;-63
2021/12/10 09:56:17;;;;;;;;;;;21.80;38.00;;;;;;5084029;28;19974;-63
2021/12/10 09:58:43;;;;;;;;;;;21.80;38.00;;;;;;5088403;28;19952;-63
2021/12/10 10:01:09;;;;;;;;;;;21.80;38.00;;;;;;5080124;28;19912;-63
2021/12/10 10:03:36;;;;;;;;;;;21.80;38.00;;;;;;5085188;28;19959;-63
2021/12/10 10:06:02;;;;;;;;;;;21.80;38.10;;;;;;5091888;28;20407;-63
2021/12/10 10:08:28;;;;;;;;;;;21.80;38.10;;;;;;5074222;28;19912;-62
2021/12/10 10:10:55;;;;;;;;;;;21.80;38.10;;;;;;5070111;28;19919;-63
2021/12/10 10:13:23;;;;;;;;;;;21.80;38.10;;;;;;5070614;28;19924;-63
2021/12/10 10:15:48;;;;;;;;;;;21.80;38.00;;;;;;5077127;28;19920;-63
2021/12/10 10:18:14;;;;;;;;;;;21.80;38.00;;;;;;5070387;28;19916;-62
2021/12/10 10:20:40;;;;;;;;;;;21.90;38.00;;;;;;5084302;28;19916;-63
2021/12/10 10:23:06;;;;;;;;;;;21.90;38.00;;;;;;5093236;28;19908;-62
2021/12/10 10:25:31;;;;;;;;;;;21.80;38.00;;;;;;5075373;28;19919;-63
2021/12/10 10:27:57;;;;;;;;;;;21.80;38.00;;;;;;5088597;28;19909;-63
2021/12/10 10:30:28;;;;;;;;;;;21.90;38.00;;;;;;5087762;28;19912;-63
2021/12/10 10:32:53;;;;;;;;;;;21.90;38.10;;;;;;5088503;28;19924;-63
2021/12/10 10:35:21;;;;;;;;;;;21.90;38.00;;;;;;5090768;28;19919;-63
2021/12/10 10:37:46;;;;;;;;;;;21.90;38.00;;;;;;5083461;28;19920;-63
2021/12/10 10:40:14;;;;;;;;;;;21.90;37.90;;;;;;5084108;28;20495;-63
2021/12/10 10:42:40;;;;;;;;;;;21.90;38.00;;;;;;5088167;28;19935;-63
2021/12/10 10:45:07;;;;;;;;;;;21.90;38.00;;;;;;5088273;28;20303;-63
2021/12/10 10:47:32;;;;;;;;;;;21.90;38.00;;;;;;5076263;28;19919;-63
2021/12/10 10:50:11;;;;;;;;;;;21.90;38.00;;;;;;5089311;28;19912;-63
2021/12/10 10:52:37;;;;;;;;;;;21.90;38.00;;;;;;5081741;28;19920;-63
2021/12/10 10:55:11;;;;;;;;;;;21.90;38.00;;;;;;5081897;28;19969;-63
2021/12/10 10:57:39;;;;;;;;;;;22.00;38.00;;;;;;5077382;28;20814;-63
2021/12/10 11:00:13;;;;;;;;;;;22.00;38.00;;;;;;5092956;28;19912;-62
2021/12/10 11:02:40;;;;;;;;;;;22.00;38.10;;;;;;5086160;28;19916;-62
2021/12/10 11:05:10;;;;;;;;;;;22.00;37.90;;;;;;5073327;28;20003;-62
2021/12/10 11:07:37;;;;;;;;;;;22.00;37.90;;;;;;5085539;28;19943;-63
2021/12/10 11:10:04;;;;;;;;;;;22.00;37.90;;;;;;5086961;28;19912;-63
2021/12/10 11:12:34;;;;;;;;;;;22.00;37.80;;;;;;5080428;28;19925;-63
2021/12/10 11:14:59;;;;;;;;;;;22.00;37.70;;;;;;5078938;28;19919;-64
2021/12/10 11:17:51;;;;;;;;;;;22.00;37.90;;;;;;5082462;28;19915;-63
2021/12/10 11:20:25;;;;;;;;;;;22.00;37.90;;;;;;5081720;28;19908;-63
2021/12/10 11:22:51;;;;;;;;;;;22.00;37.90;;;;;;5065635;28;20383;-63
2021/12/10 11:25:21;;;;;;;;;;;22.00;37.90;;;;;;5079115;28;19920;-63
2021/12/10 11:27:47;;;;;;;;;;;22.00;38.00;;;;;;5084375;28;20388;-63
2021/12/10 11:30:12;;;;;;;;;;;22.00;38.00;;;;;;5080270;28;19912;-63
2021/12/10 11:32:51;;;;;;;;;;;22.10;38.10;;;;;;5076175;28;20050;-63
2021/12/10 11:35:23;;;;;;;;;;;22.10;38.00;;;;;;5076170;28;19931;-63
2021/12/10 11:37:50;;;;;;;;;;;22.10;38.00;;;;;;5076837;28;19919;-63
2021/12/10 11:40:22;;;;;;;;;;;22.10;38.00;;;;;;5087779;28;20003;-63
2021/12/10 11:42:55;;;;;;;;;;;22.10;38.10;;;;;;5077854;28;19920;-63
2021/12/10 11:45:32;;;;;;;;;;;22.10;38.20;;;;;;5084666;28;19964;-63
2021/12/10 11:48:07;;;;;;;;;;;22.10;38.20;;;;;;5083192;28;19957;-63
2021/12/10 11:50:32;;;;;;;;;;;22.10;38.20;;;;;;5083804;28;19908;-63
2021/12/10 11:53:02;;;;;;;;;;;22.10;38.20;;;;;;5087556;28;19957;-63
2021/12/10 11:55:27;;;;;;;;;;;22.10;38.20;;;;;;5085501;28;19924;-63
2021/12/10 11:57:53;;;;;;;;;;;22.10;38.20;;;;;;5083364;28;19912;-63
2021/12/10 12:00:19;;;;;;;;;;;22.10;38.20;;;;;;5083702;28;19920;-63
2021/12/10 12:02:46;;;;;;;;;;;22.20;38.10;;;;;;5083592;28;20442;-63
2021/12/10 12:05:13;;;;;;;;;;;22.20;38.10;;;;;;5076080;28;20435;-63
2021/12/10 12:07:51;;;;;;;;;;;22.20;38.00;;;;;;5083035;28;19912;-63
2021/12/10 12:10:26;;;;;;;;;;;22.20;38.10;;;;;;5077624;28;19916;-63
2021/12/10 12:13:03;;;;;;;;;;;22.20;38.10;;;;;;5076943;28;20407;-63
2021/12/10 12:15:35;;;;;;;;;;;22.20;38.10;;;;;;5094375;28;19916;-64
2021/12/10 12:18:02;;;;;;;;;;;22.20;38.10;;;;;;5084845;28;19924;-63
2021/12/10 12:20:44;;;;;;;;;;;22.20;38.10;;;;;;5091008;28;19912;-63
2021/12/10 12:25:56;;;;;;;;;;;22.20;38.10;;;;;;5083440;28;19923;-63
2021/12/10 12:28:24;;;;;;;;;;;22.20;38.10;;;;;;5079362;28;19916;-64
2021/12/10 12:30:50;;;;;;;;;;;22.20;38.10;;;;;;5082980;28;20318;-63
2021/12/10 12:33:15;;;;;;;;;;;22.20;38.10;;;;;;5084581;28;19922;-63
2021/12/10 12:35:41;;;;;;;;;;;22.20;38.10;;;;;;5067165;28;19925;-63
2021/12/10 12:38:07;;;;;;;;;;;22.20;38.20;;;;;;5077808;28;19912;-63
2021/12/10 12:40:33;;;;;;;;;;;22.20;38.20;;;;;;5068722;28;20327;-63
2021/12/10 12:43:04;;;;;;;;;;;22.20;38.10;;;;;;5085466;28;20041;-63
2021/12/10 12:45:31;;;;;;;;;;;22.20;38.10;;;;;;5087426;28;19973;-63
2021/12/10 12:47:56;;;;;;;;;;;22.20;38.10;;;;;;5082941;28;19912;-63
2021/12/10 12:50:23;;;;;;;;;;;22.20;38.10;;;;;;5082499;28;19919;-63
2021/12/10 12:52:48;;;;;;;;;;;22.20;38.10;;;;;;5081843;28;19995;-63
2021/12/10 12:55:25;;;;;;;;;;;22.20;38.30;;;;;;5088259;28;20010;-62
2021/12/10 12:57:51;;;;;;;;;;;22.20;38.30;;;;;;5069154;28;20000;-63
2021/12/10 13:00:29;;;;;;;;;;;22.20;38.30;;;;;;5082549;28;20011;-62
2021/12/10 13:02:56;;;;;;;;;;;22.20;38.20;;;;;;5084271;28;20384;-63
2021/12/10 13:06:01;;;;;;;;;;;22.20;38.10;;;;;;5064135;28;19916;-63
2021/12/10 13:08:28;;;;;;;;;;;22.20;38.20;;;;;;4999617;28;19918;-63
2021/12/10 13:11:13;;;;;;;;;;;22.20;38.30;;;;;;5003074;28;19917;-63
2021/12/10 13:13:45;;;;;;;;;;;22.20;38.30;;;;;;5051529;28;19920;-63
2021/12/10 13:16:14;;;;;;;;;;;22.20;38.30;;;;;;5069096;28;20311;-63
2021/12/10 13:18:41;;;;;;;;;;;22.20;38.30;;;;;;5085283;28;19977;-63
2021/12/10 13:21:07;;;;;;;;;;;22.30;38.30;;;;;;5078315;28;19953;-63
2021/12/10 13:23:32;;;;;;;;;;;22.20;38.20;;;;;;5060844;28;20296;-63
2021/12/10 13:25:58;;;;;;;;;;;22.20;38.20;;;;;;5079817;28;20046;-63
2021/12/10 13:28:24;;;;;;;;;;;22.30;38.30;;;;;;5081758;28;19938;-62
2021/12/10 13:30:51;;;;;;;;;;;22.30;38.30;;;;;;5089163;28;20369;-63
2021/12/10 13:33:20;;;;;;;;;;;22.30;38.20;;;;;;5080005;28;19912;-62
2021/12/10 13:35:46;;;;;;;;;;;22.30;38.20;;;;;;5088388;28;20007;-62
2021/12/10 13:38:11;;;;;;;;;;;22.30;38.10;;;;;;5091609;28;20363;-62
2021/12/10 13:40:37;;;;;;;;;;;22.30;38.30;;;;;;5087621;28;20068;-63
2021/12/10 13:43:04;;;;;;;;;;;22.30;38.30;;;;;;5078972;28;19920;-62
2021/12/10 13:45:30;;;;;;;;;;;22.30;38.20;;;;;;5092168;28;20278;-62
2021/12/10 13:48:11;;;;;;;;;;;22.30;38.30;;;;;;5087218;28;19961;-62
2021/12/10 13:50:39;;;;;;;;;;;22.30;38.20;;;;;;5095333;28;19912;-63
2021/12/10 13:53:12;;;;;;;;;;;22.30;38.30;;;;;;5087845;28;19916;-62
2021/12/10 13:55:41;;;;;;;;;;;22.30;38.30;;;;;;5089833;28;19913;-63
2021/12/10 13:58:13;;;;;;;;;;;22.30;38.20;;;;;;5086577;28;19918;-63
2021/12/10 14:00:40;;;;;;;;;;;22.30;38.20;;;;;;5081254;28;19909;-63
2021/12/10 14:03:06;;;;;;;;;;;22.30;38.20;;;;;;5080848;28;19912;-62
2021/12/10 14:05:36;;;;;;;;;;;22.30;38.20;;;;;;5093485;28;20498;-63
2021/12/10 14:08:08;;;;;;;;;;;22.30;38.30;;;;;;5090307;28;20415;-63
2021/12/10 14:10:34;;;;;;;;;;;22.30;38.30;;;;;;5100187;28;19912;-63
2021/12/10 14:13:04;;;;;;;;;;;22.30;38.30;;;;;;5086776;28;19924;-63
2021/12/10 14:18:20;;;;;;;;;;;22.30;38.30;;;;;;5083941;28;19965;-63
2021/12/10 14:20:53;;;;;;;;;;;22.30;38.30;;;;;;5091576;28;19916;-63
2021/12/10 14:23:22;;;;;;;;;;;22.30;38.30;;;;;;5101617;28;19912;-63
2021/12/10 14:25:52;;;;;;;;;;;22.30;38.20;;;;;;5092744;28;19923;-63
2021/12/10 14:28:31;;;;;;;;;;;22.30;38.20;;;;;;5092354;28;20399;-63
2021/12/10 14:30:56;;;;;;;;;;;22.40;38.20;;;;;;5079833;28;19965;-63